Time;durP1;ratioP1;P1;durP2;ratioP2;P2;SDS_P1;SDS_P2;PMS_P1;PMS_P2;Temp;Humidity;BMP_temperature;BMP_pressure;BME280_temperature;BME280_humidity;BME280_pressure;Samples;Min_cycle;Max_cycle;Signal;HPM_P1;HPM_P2
2023/08/05 00:01:24;;;;;;;18.83;5.03;;;13.40;99.90;;;;;;5054448;28;20208;-78
2023/08/05 00:03:50;;;;;;;13.23;5.10;;;13.40;99.90;;;;;;5056385;28;20474;-79
2023/08/05 00:06:15;;;;;;;13.10;4.50;;;13.40;99.90;;;;;;5056329;28;20080;-79
2023/08/05 00:08:41;;;;;;;10.45;4.63;;;13.40;99.90;;;;;;5054190;28;20516;-79
2023/08/05 00:11:07;;;;;;;13.10;4.70;;;13.50;99.90;;;;;;5056934;28;20048;-78
2023/08/05 00:13:34;;;;;;;14.40;4.57;;;13.50;99.90;;;;;;5036679;28;20477;-79
2023/08/05 00:16:05;;;;;;;15.45;4.90;;;13.60;99.90;;;;;;5064160;28;20049;-79
2023/08/05 00:18:30;;;;;;;12.23;4.43;;;13.60;99.90;;;;;;5059825;28;20491;-79
2023/08/05 00:20:56;;;;;;;13.52;4.28;;;13.60;99.90;;;;;;5055043;28;20127;-79
2023/08/05 00:23:22;;;;;;;10.10;4.30;;;13.60;99.90;;;;;;5054530;28;20045;-78
2023/08/05 00:25:50;;;;;;;15.25;4.93;;;13.70;99.90;;;;;;5052269;28;20047;-77
2023/08/05 00:28:16;;;;;;;11.43;4.72;;;13.70;99.90;;;;;;5052147;28;20183;-78
2023/08/05 00:30:42;;;;;;;11.80;4.60;;;13.70;99.90;;;;;;5035769;28;20131;-78
2023/08/05 00:33:08;;;;;;;14.32;4.55;;;13.80;99.90;;;;;;5038700;28;20059;-78
2023/08/05 00:35:33;;;;;;;11.90;4.15;;;13.80;99.90;;;;;;5055754;28;20132;-78
2023/08/05 00:37:59;;;;;;;18.92;5.05;;;13.80;99.90;;;;;;5055896;28;20145;-78
2023/08/05 00:40:25;;;;;;;16.15;4.97;;;13.80;99.90;;;;;;5052354;28;20132;-78
2023/08/05 00:42:50;;;;;;;12.57;4.93;;;13.80;99.90;;;;;;5053361;28;20158;-78
2023/08/05 00:45:16;;;;;;;12.57;5.18;;;13.70;99.90;;;;;;5080212;28;20085;-79
2023/08/05 00:47:42;;;;;;;13.52;5.07;;;13.60;99.90;;;;;;5063193;28;20053;-76
2023/08/05 00:50:10;;;;;;;18.42;5.47;;;13.60;99.90;;;;;;5039031;28;20045;-80
2023/08/05 00:52:37;;;;;;;11.60;5.05;;;13.60;99.90;;;;;;5036978;28;20048;-78
2023/08/05 00:55:03;;;;;;;15.65;5.32;;;13.50;99.90;;;;;;5057200;28;20069;-78
2023/08/05 00:57:29;;;;;;;17.57;5.40;;;13.40;99.90;;;;;;5065121;28;20109;-79
2023/08/05 00:59:55;;;;;;;16.90;5.50;;;13.20;99.90;;;;;;5059200;28;20069;-78
2023/08/05 01:02:21;;;;;;;14.02;5.10;;;13.10;99.90;;;;;;5047739;28;20057;-79
2023/08/05 01:04:46;;;;;;;15.77;5.07;;;13.00;99.90;;;;;;5072836;28;20041;-81
2023/08/05 01:07:13;;;;;;;13.80;4.88;;;12.90;99.90;;;;;;5067128;28;20049;-79
2023/08/05 01:09:39;;;;;;;13.05;5.13;;;12.80;99.90;;;;;;5071227;28;20052;-80
2023/08/05 01:12:05;;;;;;;18.67;5.03;;;12.70;99.90;;;;;;5066272;28;20412;-79
2023/08/05 01:14:31;;;;;;;17.00;5.33;;;12.70;99.90;;;;;;5065794;28;20057;-78
2023/08/05 01:16:57;;;;;;;14.32;5.28;;;12.60;99.90;;;;;;5048974;28;20045;-78
2023/08/05 01:19:26;;;;;;;14.55;5.93;;;12.60;99.90;;;;;;5063310;28;20449;-78
2023/08/05 01:21:55;;;;;;;15.98;5.85;;;12.50;99.90;;;;;;5057328;28;20095;-79
2023/08/05 01:24:31;;;;;;;17.42;5.70;;;12.50;99.90;;;;;;5057977;28;20052;-78
2023/08/05 01:26:58;;;;;;;17.73;5.60;;;12.50;99.90;;;;;;5058198;28;20067;-78
2023/08/05 01:29:24;;;;;;;17.85;5.72;;;12.50;99.90;;;;;;5059795;28;20377;-80
2023/08/05 01:31:51;;;;;;;17.63;5.95;;;12.40;99.90;;;;;;5042661;28;20053;-78
2023/08/05 01:34:17;;;;;;;;;;;12.50;99.90;;;;;;5056727;28;20052;-79
2023/08/05 01:36:42;;;;;;;15.57;5.73;;;12.50;99.90;;;;;;5057225;28;20264;-79
2023/08/05 01:39:08;;;;;;;16.98;5.82;;;12.50;99.90;;;;;;5059524;28;20053;-79
2023/08/05 01:41:34;;;;;;;15.68;5.50;;;12.60;99.90;;;;;;5057360;28;20493;-78
2023/08/05 01:44:00;;;;;;;16.10;5.93;;;12.60;99.90;;;;;;5056090;28;20048;-79
2023/08/05 01:46:25;;;;;;;16.73;5.40;;;12.70;99.90;;;;;;5038760;28;20056;-79
2023/08/05 01:48:51;;;;;;;16.00;5.57;;;12.70;99.90;;;;;;5055966;28;20131;-80
2023/08/05 01:51:17;;;;;;;14.48;5.70;;;12.70;99.90;;;;;;5054651;28;20041;-79
2023/08/05 01:53:43;;;;;;;16.30;5.03;;;12.70;99.90;;;;;;5021922;28;20059;-79
2023/08/05 01:56:08;;;;;;;17.37;6.17;;;12.70;99.90;;;;;;5055973;28;20058;-79
2023/08/05 01:58:34;;;;;;;15.82;5.80;;;12.80;99.90;;;;;;5055864;28;20461;-80
2023/08/05 02:01:00;;;;;;;12.02;5.22;;;12.80;99.90;;;;;;5038848;28;20053;-82
2023/08/05 02:03:25;;;;;;;12.40;6.05;;;12.80;99.90;;;;;;5055102;28;20055;-80
2023/08/05 02:05:51;;;;;;;15.43;5.50;;;12.90;99.90;;;;;;5054855;28;20049;-79
2023/08/05 02:08:17;;;;;;;15.95;5.55;;;13.00;99.90;;;;;;5054940;28;20110;-78
2023/08/05 02:10:43;;;;;;;15.00;5.43;;;13.10;99.90;;;;;;5055222;28;20052;-78
2023/08/05 02:13:08;;;;;;;15.88;5.80;;;13.10;99.90;;;;;;5056205;28;20461;-78
2023/08/05 02:15:34;;;;;;;12.60;5.60;;;13.20;99.90;;;;;;5055645;28;20566;-78
2023/08/05 02:18:00;;;;;;;12.90;4.97;;;13.20;99.90;;;;;;5055858;28;20044;-79
2023/08/05 02:20:26;;;;;;;13.38;5.53;;;13.20;99.90;;;;;;5054374;28;20050;-79
2023/08/05 02:22:51;;;;;;;15.15;5.35;;;13.30;99.90;;;;;;5037859;28;20040;-79
2023/08/05 02:25:17;;;;;;;15.02;5.13;;;13.40;99.90;;;;;;5054678;28;20135;-79
2023/08/05 02:27:43;;;;;;;14.07;5.22;;;13.40;99.90;;;;;;5055337;28;20053;-78
2023/08/05 02:30:09;;;;;;;13.05;5.22;;;13.40;99.90;;;;;;5037590;28;20045;-77
2023/08/05 02:32:34;;;;;;;12.77;5.30;;;13.40;99.90;;;;;;5038549;28;20068;-78
2023/08/05 02:35:00;;;;;;;12.48;5.10;;;13.50;99.90;;;;;;5055491;28;20076;-79
2023/08/05 02:37:26;;;;;;;17.70;5.32;;;13.50;99.90;;;;;;5055264;28;20061;-79
2023/08/05 02:39:52;;;;;;;14.27;5.53;;;13.50;99.90;;;;;;5053605;28;20051;-78
2023/08/05 02:42:17;;;;;;;12.05;5.10;;;13.50;99.90;;;;;;5055759;28;20049;-78
2023/08/05 02:44:44;;;;;;;15.75;5.13;;;13.50;99.90;;;;;;5055918;28;20477;-79
2023/08/05 02:47:10;;;;;;;13.57;4.72;;;13.50;99.90;;;;;;5058995;28;20045;-79
2023/08/05 02:49:35;;;;;;;15.13;5.40;;;13.50;99.90;;;;;;5055227;28;20051;-78
2023/08/05 02:52:01;;;;;;;13.20;5.30;;;13.50;99.90;;;;;;5053686;28;20044;-78
2023/08/05 02:54:27;;;;;;;19.73;5.20;;;13.50;99.90;;;;;;5056940;28;20087;-78
2023/08/05 02:56:53;;;;;;;10.88;4.47;;;13.60;99.90;;;;;;5058863;28;20044;-78
2023/08/05 02:59:19;;;;;;;15.95;5.07;;;13.50;99.90;;;;;;5038111;28;20135;-78
2023/08/05 03:01:44;;;;;;;10.73;4.97;;;13.50;99.90;;;;;;5053355;28;20132;-75
2023/08/05 03:04:10;;;;;;;20.92;6.25;;;13.50;99.90;;;;;;5037207;28;20096;-79
2023/08/05 03:06:36;;;;;;;14.25;5.53;;;13.50;99.90;;;;;;5049134;28;20063;-80
2023/08/05 03:09:02;;;;;;;14.10;5.55;;;13.50;99.90;;;;;;5041631;28;20045;-77
2023/08/05 03:11:31;;;;;;;13.95;5.60;;;13.50;99.90;;;;;;5054908;28;20511;-75
2023/08/05 03:13:57;;;;;;;14.88;4.97;;;13.50;99.90;;;;;;5036946;28;20136;-76
2023/08/05 03:16:22;;;;;;;14.02;5.40;;;13.60;99.90;;;;;;5054391;28;20049;-78
2023/08/05 03:18:48;;;;;;;14.00;5.35;;;13.60;99.90;;;;;;5054342;28;20037;-81
2023/08/05 03:21:14;;;;;;;16.52;5.43;;;13.60;99.90;;;;;;5053584;28;20106;-79
2023/08/05 03:23:40;;;;;;;13.40;5.20;;;13.50;99.90;;;;;;5054190;28;20045;-79
2023/08/05 03:26:05;;;;;;;13.75;5.18;;;13.60;99.90;;;;;;5055143;28;20127;-77
2023/08/05 03:28:31;;;;;;;21.45;5.70;;;13.60;99.90;;;;;;5056230;28;20045;-80
2023/08/05 03:30:57;;;;;;;13.85;5.43;;;13.60;99.90;;;;;;5057245;28;20056;-79
2023/08/05 03:33:23;;;;;;;14.93;6.05;;;13.60;99.90;;;;;;5056512;28;20454;-79
2023/08/05 03:35:48;;;;;;;14.30;5.43;;;13.60;99.90;;;;;;5056593;28;20040;-79
2023/08/05 03:38:15;;;;;;;15.60;5.97;;;13.50;99.90;;;;;;5052977;28;20453;-78
2023/08/05 03:40:41;;;;;;;14.98;5.88;;;13.50;99.90;;;;;;5053836;28;20135;-78
2023/08/05 03:43:07;;;;;;;13.77;5.18;;;13.50;99.90;;;;;;5053288;28;20128;-78
2023/08/05 03:45:32;;;;;;;17.10;5.67;;;13.60;99.90;;;;;;5054384;28;20064;-78
2023/08/05 03:47:58;;;;;;;16.15;5.82;;;13.60;99.90;;;;;;5052726;28;20040;-77
2023/08/05 03:50:28;;;;;;;14.75;6.28;;;13.60;99.90;;;;;;5053316;28;20068;-77
2023/08/05 03:52:54;;;;;;;17.08;5.45;;;13.70;99.90;;;;;;5053590;28;20060;-78
2023/08/05 03:55:21;;;;;;;17.17;5.90;;;13.60;99.90;;;;;;5053711;28;20056;-78
2023/08/05 03:57:47;;;;;;;18.50;6.57;;;13.60;99.90;;;;;;5053617;28;20476;-79
2023/08/05 04:00:13;;;;;;;16.90;6.30;;;13.70;99.90;;;;;;5053627;28;20124;-77
2023/08/05 04:02:40;;;;;;;15.32;6.25;;;13.70;99.90;;;;;;5053550;28;20440;-78
2023/08/05 04:05:06;;;;;;;18.17;6.32;;;13.60;99.90;;;;;;5036193;28;20041;-79
2023/08/05 04:07:32;;;;;;;15.85;5.72;;;13.60;99.90;;;;;;5053645;28;20041;-77
2023/08/05 04:09:57;;;;;;;13.98;5.97;;;13.60;99.90;;;;;;5053506;28;20084;-78
2023/08/05 04:12:23;;;;;;;19.38;6.65;;;13.50;99.90;;;;;;5036727;28;20040;-77
2023/08/05 04:14:53;;;;;;;18.95;6.65;;;13.50;99.90;;;;;;5053536;28;20052;-79
2023/08/05 04:17:21;;;;;;;13.70;5.90;;;13.50;99.90;;;;;;5053084;28;20049;-78
2023/08/05 04:19:47;;;;;;;16.15;6.40;;;13.40;99.90;;;;;;5052285;28;20123;-78
2023/08/05 04:22:16;;;;;;;18.95;6.53;;;13.40;99.90;;;;;;5052853;28;20461;-79
2023/08/05 04:24:45;;;;;;;20.35;6.70;;;13.30;99.90;;;;;;5052409;28;20049;-79
2023/08/05 04:27:10;;;;;;;17.85;6.88;;;13.20;99.90;;;;;;5036801;28;20049;-79
2023/08/05 04:29:36;;;;;;;15.55;6.65;;;13.30;99.90;;;;;;5053321;28;20500;-79
2023/08/05 04:32:02;;;;;;;20.13;6.97;;;13.20;99.90;;;;;;5035784;28;20048;-78
2023/08/05 04:34:33;;;;;;;19.85;6.63;;;13.20;99.90;;;;;;5053394;28;20056;-79
2023/08/05 04:37:19;;;;;;;17.92;6.75;;;13.20;99.90;;;;;;5053038;28;20104;-78
2023/08/05 04:39:46;;;;;;;16.40;6.10;;;13.20;99.90;;;;;;5057460;28;20041;-78
2023/08/05 04:42:12;;;;;;;18.92;6.47;;;13.30;99.90;;;;;;5056722;28;20045;-78
2023/08/05 04:44:41;;;;;;;13.37;5.87;;;13.30;99.90;;;;;;5057255;28;20119;-78
2023/08/05 04:47:11;;;;;;;17.33;6.50;;;13.40;99.90;;;;;;5057384;28;20129;-79
2023/08/05 04:49:38;;;;;;;15.52;6.40;;;13.40;99.90;;;;;;5057574;28;20041;-78
2023/08/05 04:52:08;;;;;;;14.57;6.47;;;13.50;99.90;;;;;;5056424;28;20056;-79
2023/08/05 04:54:42;;;;;;;17.13;6.43;;;13.60;99.90;;;;;;5056484;28;20051;-80
2023/08/05 04:57:08;;;;;;;16.77;7.78;;;13.60;99.90;;;;;;5039667;28;20049;-78
2023/08/05 04:59:33;;;;;;;17.65;6.53;;;13.80;99.90;;;;;;5056201;28;20148;-79
2023/08/05 05:01:59;;;;;;;13.77;6.60;;;13.90;99.90;;;;;;5056653;28;20134;-78
2023/08/05 05:04:25;;;;;;;16.80;6.38;;;14.00;99.90;;;;;;5055688;28;20088;-79
2023/08/05 05:06:51;;;;;;;15.82;6.32;;;14.20;99.90;;;;;;5055857;28;20071;-78
2023/08/05 05:09:17;;;;;;;17.13;6.47;;;14.20;99.90;;;;;;5039078;28;20049;-79
2023/08/05 05:11:43;;;;;;;18.15;6.30;;;14.40;99.90;;;;;;5039264;28;20053;-79
2023/08/05 05:14:08;;;;;;;15.48;6.40;;;14.40;99.90;;;;;;5039884;28;20057;-77
2023/08/05 05:16:34;;;;;;;13.90;6.32;;;14.60;99.90;;;;;;5056695;28;20445;-78
2023/08/05 05:19:00;;;;;;;17.17;5.93;;;14.70;99.90;;;;;;5056121;28;20051;-78
2023/08/05 05:21:26;;;;;;;14.23;6.45;;;14.70;99.90;;;;;;5056389;28;20361;-76
2023/08/05 05:23:52;;;;;;;16.05;5.57;;;14.80;99.90;;;;;;5056606;28;20199;-75
2023/08/05 05:26:18;;;;;;;16.13;5.88;;;14.80;99.90;;;;;;5039028;28;20110;-79
2023/08/05 05:28:43;;;;;;;16.80;5.80;;;14.90;99.90;;;;;;5055192;28;20154;-76
2023/08/05 05:31:09;;;;;;;12.98;5.70;;;15.00;99.90;;;;;;5056440;28;20128;-75
2023/08/05 05:33:35;;;;;;;13.90;6.03;;;15.00;99.90;;;;;;5055447;28;20421;-74
2023/08/05 05:36:01;;;;;;;15.05;5.60;;;15.10;99.90;;;;;;5056432;28;20065;-74
2023/08/05 05:38:27;;;;;;;16.25;5.80;;;15.10;99.90;;;;;;5055592;28;20053;-76
2023/08/05 05:40:56;;;;;;;14.18;5.60;;;15.10;99.90;;;;;;5022158;28;20045;-76
2023/08/05 05:43:21;;;;;;;14.10;5.90;;;15.10;99.90;;;;;;5056685;28;20052;-77
2023/08/05 05:45:52;;;;;;;16.70;5.65;;;15.00;99.90;;;;;;5056077;28;20114;-77
2023/08/05 05:48:18;;;;;;;13.07;5.38;;;15.00;99.90;;;;;;5054537;28;20103;-76
2023/08/05 05:50:44;;;;;;;16.33;5.18;;;15.00;99.90;;;;;;5055806;28;20036;-76
2023/08/05 05:53:13;;;;;;;11.70;4.97;;;15.10;99.90;;;;;;5039247;28;20052;-78
2023/08/05 05:55:42;;;;;;;14.65;5.65;;;15.10;99.90;;;;;;5055833;28;20053;-78
2023/08/05 05:58:08;;;;;;;13.60;5.38;;;15.20;99.90;;;;;;5056343;28;20048;-78
2023/08/05 06:00:37;;;;;;;11.65;4.78;;;15.30;99.90;;;;;;5054859;28;20502;-77
2023/08/05 06:03:03;;;;;;;15.48;5.20;;;15.40;99.90;;;;;;5056084;28;20477;-77
2023/08/05 06:05:30;;;;;;;15.93;5.28;;;15.60;99.90;;;;;;5056180;28;20048;-76
2023/08/05 06:07:56;;;;;;;11.10;4.70;;;15.70;99.90;;;;;;5038369;28;20099;-74
2023/08/05 06:10:21;;;;;;;18.13;5.00;;;15.70;99.90;;;;;;5054274;28;20045;-74
2023/08/05 06:12:47;;;;;;;15.20;5.38;;;15.70;99.90;;;;;;5037757;28;20041;-74
2023/08/05 06:15:12;;;;;;;12.32;4.82;;;15.70;99.90;;;;;;5037981;28;20053;-76
2023/08/05 06:17:39;;;;;;;11.73;4.43;;;15.70;99.90;;;;;;5055758;28;20044;-73
2023/08/05 06:20:06;;;;;;;10.52;4.80;;;15.80;99.90;;;;;;5056022;28;20128;-74
2023/08/05 06:22:32;;;;;;;;;;;15.80;99.90;;;;;;5054555;28;20087;-75
2023/08/05 06:24:57;;;;;;;13.53;4.27;;;15.80;99.90;;;;;;5055428;28;20011;-72
2023/08/05 06:27:23;;;;;;;13.25;5.03;;;15.90;99.90;;;;;;5055046;28;20041;-73
2023/08/05 06:29:49;;;;;;;13.70;4.90;;;15.90;99.90;;;;;;5055095;28;20043;-72
2023/08/05 06:32:14;;;;;;;13.95;5.18;;;16.00;99.90;;;;;;5053998;28;20554;-73
2023/08/05 06:34:40;;;;;;;13.68;5.00;;;16.00;99.90;;;;;;5037644;28;20110;-74
2023/08/05 06:37:06;;;;;;;16.63;5.32;;;16.00;99.90;;;;;;5054787;28;20052;-74
2023/08/05 06:39:33;;;;;;;16.83;4.80;;;16.00;99.90;;;;;;5054932;28;20124;-72
2023/08/05 06:41:59;;;;;;;21.73;5.20;;;16.00;99.90;;;;;;5054084;28;20485;-74
2023/08/05 06:44:25;;;;;;;14.57;4.95;;;16.00;99.90;;;;;;5037518;28;20101;-75
2023/08/05 06:46:51;;;;;;;15.30;5.65;;;16.00;99.90;;;;;;5054719;28;20532;-76
2023/08/05 06:49:16;;;;;;;16.98;5.95;;;16.00;99.90;;;;;;5055000;28;20045;-75
2023/08/05 06:51:42;;;;;;;15.80;5.78;;;16.00;99.90;;;;;;5054775;28;20392;-75
2023/08/05 06:54:10;;;;;;;14.10;6.10;;;16.00;99.90;;;;;;5053954;28;20469;-75
2023/08/05 06:56:36;;;;;;;14.95;5.18;;;16.10;99.90;;;;;;5071391;28;20045;-73
2023/08/05 06:59:02;;;;;;;18.10;5.70;;;16.20;99.90;;;;;;5054135;28;20497;-75
2023/08/05 07:01:28;;;;;;;16.92;5.78;;;16.30;99.90;;;;;;5053895;28;20189;-75
2023/08/05 07:03:54;;;;;;;16.08;5.95;;;16.40;99.90;;;;;;5054820;28;20052;-77
2023/08/05 07:06:19;;;;;;;18.23;6.32;;;16.50;99.90;;;;;;5055780;28;20041;-77
2023/08/05 07:08:45;;;;;;;17.63;6.50;;;16.60;99.90;;;;;;5054859;28;20045;-75
2023/08/05 07:11:11;;;;;;;20.67;5.90;;;16.70;99.90;;;;;;5053317;28;20041;-74
2023/08/05 07:13:36;;;;;;;15.45;5.55;;;16.80;99.90;;;;;;5054557;28;20045;-73
2023/08/05 07:16:03;;;;;;;15.45;5.32;;;16.90;99.90;;;;;;5054373;28;20056;-72
2023/08/05 07:18:30;;;;;;;11.15;5.03;;;16.90;99.90;;;;;;5053144;28;20045;-73
2023/08/05 07:20:56;;;;;;;;;;;16.80;99.90;;;;;;5053785;28;20449;-74
2023/08/05 07:23:21;;;;;;;12.93;4.70;;;16.80;99.90;;;;;;5069907;28;19960;-74
2023/08/05 07:25:47;;;;;;;15.40;5.80;;;16.80;99.90;;;;;;5053104;28;20103;-73
2023/08/05 07:28:13;;;;;;;12.00;4.43;;;16.90;99.90;;;;;;5054189;28;20049;-72
2023/08/05 07:30:39;;;;;;;13.00;5.32;;;16.90;99.90;;;;;;5053026;28;20489;-74
2023/08/05 07:33:09;;;;;;;16.50;5.20;;;17.00;99.90;;;;;;5053788;28;20040;-73
2023/08/05 07:35:35;;;;;;;15.68;4.38;;;17.00;99.90;;;;;;5036806;28;20281;-74
2023/08/05 07:38:04;;;;;;;13.33;4.40;;;17.10;99.90;;;;;;5054309;28;20045;-73
2023/08/05 07:40:31;;;;;;;15.68;5.15;;;17.10;99.90;;;;;;5052791;28;20303;-76
2023/08/05 07:42:59;;;;;;;12.88;3.97;;;17.10;99.90;;;;;;5053187;28;20491;-72
2023/08/05 07:45:26;;;;;;;14.35;4.55;;;17.20;99.90;;;;;;5053916;28;20087;-74
2023/08/05 07:47:52;;;;;;;12.00;4.78;;;17.30;99.90;;;;;;5053671;28;20053;-74
2023/08/05 07:50:22;;;;;;;13.35;4.80;;;17.50;99.90;;;;;;5052912;28;20048;-74
2023/08/05 07:52:49;;;;;;;12.77;4.68;;;17.50;99.90;;;;;;5053648;28;20053;-72
2023/08/05 07:55:15;;;;;;;12.00;4.07;;;17.60;99.90;;;;;;5053784;28;20049;-75
2023/08/05 07:57:41;;;;;;;14.93;4.32;;;17.80;99.90;;;;;;5053755;28;20389;-75
2023/08/05 08:00:10;;;;;;;12.00;4.07;;;18.00;99.90;;;;;;5052345;28;20041;-73
2023/08/05 08:02:35;;;;;;;13.70;4.80;;;18.10;99.90;;;;;;5052404;28;20076;-73
2023/08/05 08:05:05;;;;;;;17.00;4.38;;;18.30;99.90;;;;;;5053965;28;20185;-74
2023/08/05 08:07:31;;;;;;;12.43;3.92;;;18.40;99.90;;;;;;5052684;28;20106;-73
2023/08/05 08:09:57;;;;;;;19.52;3.92;;;18.50;99.90;;;;;;5035795;28;20041;-74
2023/08/05 08:12:23;;;;;;;11.07;3.65;;;18.50;99.90;;;;;;5052556;28;20044;-74
2023/08/05 08:14:49;;;;;;;13.32;4.35;;;18.50;99.90;;;;;;5054740;28;20045;-73
2023/08/05 08:17:16;;;;;;;12.63;3.80;;;18.50;99.90;;;;;;5053844;28;20393;-76
2023/08/05 08:19:42;;;;;;;11.63;4.25;;;18.60;99.90;;;;;;5053642;28;20056;-74
2023/08/05 08:22:08;;;;;;;12.45;3.53;;;18.70;99.90;;;;;;5053810;28;20069;-75
2023/08/05 08:24:35;;;;;;;11.90;4.53;;;18.90;99.90;;;;;;5053261;28;20147;-73
2023/08/05 08:27:00;;;;;;;14.55;3.95;;;19.00;99.90;;;;;;5052189;28;20105;-73
2023/08/05 08:29:26;;;;;;;11.77;3.70;;;19.10;99.90;;;;;;5053253;28;20048;-72
2023/08/05 08:31:52;;;;;;;11.87;4.63;;;19.20;99.90;;;;;;5052169;28;20045;-76
2023/08/05 08:34:17;;;;;;;15.70;4.85;;;19.20;99.90;;;;;;5053205;28;20503;-74
2023/08/05 08:36:43;;;;;;;12.27;4.20;;;19.30;99.90;;;;;;5052947;28;20057;-75
2023/08/05 08:39:09;;;;;;;10.50;3.70;;;19.50;99.90;;;;;;5053190;28;20081;-74
2023/08/05 08:41:43;;;;;;;11.03;3.77;;;19.50;99.90;;;;;;5053133;28;20076;-75
2023/08/05 08:44:10;;;;;;;9.07;3.92;;;19.50;99.90;;;;;;5052368;28;20055;-73
2023/08/05 08:46:36;;;;;;;11.27;3.15;;;19.60;99.90;;;;;;5053046;28;20037;-71
2023/08/05 08:49:02;;;;;;;10.93;3.78;;;19.70;99.90;;;;;;5053004;28;20059;-77
2023/08/05 08:51:29;;;;;;;11.82;2.88;;;19.70;99.90;;;;;;5052982;28;20041;-69
2023/08/05 08:53:55;;;;;;;10.88;3.10;;;19.70;99.90;;;;;;5052826;28;20535;-68
2023/08/05 08:56:21;;;;;;;10.85;3.38;;;19.70;99.90;;;;;;5053430;28;20041;-69
2023/08/05 08:58:47;;;;;;;11.13;3.10;;;19.70;99.90;;;;;;5052019;28;20358;-69
2023/08/05 09:01:16;;;;;;;9.93;3.33;;;19.80;99.90;;;;;;5052796;28;20485;-71
2023/08/05 09:03:43;;;;;;;8.68;3.28;;;19.80;99.90;;;;;;5051894;28;20459;-71
2023/08/05 09:06:09;;;;;;;10.43;3.42;;;19.80;99.90;;;;;;5052760;28;20389;-70
2023/08/05 09:08:35;;;;;;;9.43;2.70;;;19.90;99.90;;;;;;5019183;28;20052;-70
2023/08/05 09:11:01;;;;;;;7.00;2.80;;;20.00;99.90;;;;;;5051541;28;20041;-70
2023/08/05 09:13:27;;;;;;;7.33;2.77;;;20.00;99.90;;;;;;5035455;28;20049;-69
2023/08/05 09:15:54;;;;;;;14.50;3.53;;;19.90;99.90;;;;;;5052731;28;20503;-72
2023/08/05 09:18:20;;;;;;;9.38;3.25;;;19.80;99.90;;;;;;5052427;28;20524;-72
2023/08/05 09:20:49;;;;;;;11.57;2.60;;;19.80;99.90;;;;;;5052830;28;20045;-69
2023/08/05 09:23:15;;;;;;;7.78;2.63;;;19.80;99.90;;;;;;5054506;28;20052;-70
2023/08/05 09:25:45;;;;;;;14.43;2.78;;;20.00;99.90;;;;;;5056785;28;20049;-69
2023/08/05 09:28:11;;;;;;;8.13;2.95;;;20.00;99.90;;;;;;5056288;28;20045;-70
2023/08/05 09:30:37;;;;;;;11.00;2.67;;;20.20;99.90;;;;;;5054989;28;20083;-70
2023/08/05 09:33:03;;;;;;;6.83;2.60;;;20.40;99.90;;;;;;5055815;28;20053;-71
2023/08/05 09:35:29;;;;;;;8.82;2.78;;;20.60;99.90;;;;;;5056056;28;20045;-70
2023/08/05 09:37:55;;;;;;;10.45;3.08;;;20.70;99.90;;;;;;5038415;28;20053;-69
2023/08/05 09:40:29;;;;;;;11.35;3.30;;;20.70;99.90;;;;;;5054926;28;20103;-70
2023/08/05 09:42:59;;;;;;;9.88;2.72;;;20.70;99.90;;;;;;5056784;28;20118;-69
2023/08/05 09:45:25;;;;;;;10.63;3.75;;;20.80;99.90;;;;;;5054922;28;20420;-71
2023/08/05 09:48:03;;;;;;;7.25;3.40;;;20.80;99.90;;;;;;5055763;28;20481;-69
2023/08/05 09:50:30;;;;;;;9.43;3.58;;;20.80;99.90;;;;;;5056114;28;20190;-70
2023/08/05 09:52:59;;;;;;;9.65;3.47;;;20.80;99.90;;;;;;5055925;28;20091;-69
2023/08/05 09:55:27;;;;;;;9.77;3.85;;;20.70;99.90;;;;;;5055930;28;20107;-70
2023/08/05 09:57:54;;;;;;;9.25;3.97;;;20.70;99.90;;;;;;5055841;28;20053;-71
2023/08/05 10:00:20;;;;;;;9.70;3.88;;;20.80;99.90;;;;;;5054617;28;20056;-68
2023/08/05 10:02:46;;;;;;;13.17;4.07;;;20.90;99.90;;;;;;5054631;28;20058;-69
2023/08/05 10:05:12;;;;;;;9.88;3.83;;;21.00;99.90;;;;;;5055614;28;20049;-71
2023/08/05 10:07:40;;;;;;;10.43;4.38;;;21.10;99.90;;;;;;5055583;28;20442;-69
2023/08/05 10:10:17;;;;;;;8.30;3.70;;;21.20;99.90;;;;;;5055409;28;20051;-69
2023/08/05 10:12:47;;;;;;;12.88;4.40;;;21.20;99.90;;;;;;5056472;28;20049;-69
2023/08/05 10:15:40;;;;;;;12.77;4.50;;;21.20;99.90;;;;;;5055344;28;20049;-69
2023/08/05 10:18:09;;;;;;;10.43;4.00;;;21.40;99.90;;;;;;5054192;28;20064;-70
2023/08/05 10:20:36;;;;;;;16.05;5.32;;;21.50;99.90;;;;;;5055419;28;20037;-69
2023/08/05 10:23:09;;;;;;;14.07;4.93;;;21.50;99.90;;;;;;5054212;28;20052;-69
2023/08/05 10:25:49;;;;;;;12.23;4.53;;;21.50;99.90;;;;;;5053841;28;20056;-69
2023/08/05 10:28:25;;;;;;;12.27;4.13;;;21.40;99.90;;;;;;5054723;28;20378;-69
2023/08/05 10:30:52;;;;;;;10.30;4.13;;;21.40;99.90;;;;;;5055947;28;20496;-69
2023/08/05 10:33:18;;;;;;;;;;;21.30;99.90;;;;;;5054905;28;20132;-70
2023/08/05 10:35:44;;;;;;;11.38;4.78;;;21.40;99.90;;;;;;5054907;28;20373;-69
2023/08/05 10:38:16;;;;;;;11.57;5.28;;;21.40;99.90;;;;;;5037679;28;20052;-69
2023/08/05 10:40:48;;;;;;;9.68;4.72;;;21.40;99.90;;;;;;5055486;28;20045;-69
2023/08/05 10:43:31;;;;;;;11.07;4.72;;;21.40;99.90;;;;;;5055291;28;20049;-72
2023/08/05 10:45:58;;;;;;;13.65;5.43;;;21.50;99.90;;;;;;5053621;28;20135;-69
2023/08/05 10:48:35;;;;;;;14.43;6.85;;;21.50;99.90;;;;;;5055840;28;20492;-73
2023/08/05 10:51:14;;;;;;;15.25;7.00;;;21.60;99.90;;;;;;5055728;28;20045;-72
2023/08/05 10:53:55;;;;;;;13.93;6.68;;;21.70;99.90;;;;;;5054618;28;20041;-72
2023/08/05 10:56:31;;;;;;;15.38;7.63;;;21.70;99.90;;;;;;5054811;28;20045;-71
2023/08/05 10:58:59;;;;;;;18.05;8.57;;;21.60;99.90;;;;;;5054644;28;20048;-71
2023/08/05 11:01:58;;;;;;;15.55;8.57;;;21.50;99.90;;;;;;5054590;28;20078;-72
2023/08/05 11:04:33;;;;;;;18.13;10.57;;;21.50;99.90;;;;;;5053299;28;20480;-71
2023/08/05 11:07:00;;;;;;;21.70;11.32;;;21.50;99.90;;;;;;5037045;28;20088;-71
2023/08/05 11:09:27;;;;;;;22.65;12.25;;;21.40;99.90;;;;;;5053122;28;20057;-71
2023/08/05 11:11:53;;;;;;;22.88;12.15;;;21.30;99.90;;;;;;5053165;28;20056;-71
2023/08/05 11:14:19;;;;;;;20.03;11.60;;;21.10;99.90;;;;;;5054963;28;20389;-72
2023/08/05 11:16:46;;;;;;;21.38;11.80;;;21.10;99.90;;;;;;5053186;28;20053;-73
2023/08/05 11:19:12;;;;;;;19.30;10.90;;;21.20;99.90;;;;;;5054371;28;20133;-74
2023/08/05 11:21:42;;;;;;;18.80;11.00;;;21.30;99.90;;;;;;5053103;28;20044;-71
2023/08/05 11:24:17;;;;;;;19.08;10.00;;;21.60;99.90;;;;;;5054164;28;20084;-73
2023/08/05 11:26:42;;;;;;;17.02;10.55;;;21.80;99.90;;;;;;5052758;28;20505;-72
2023/08/05 11:29:09;;;;;;;19.03;9.90;;;22.10;99.90;;;;;;5054959;28;20045;-70
2023/08/05 11:31:34;;;;;;;19.27;10.43;;;22.30;99.90;;;;;;5053330;28;20052;-69
2023/08/05 11:34:01;;;;;;;;;;;22.20;99.90;;;;;;5054205;28;20049;-70
2023/08/05 11:36:28;;;;;;;21.63;10.45;;;22.40;99.90;;;;;;5086508;28;19928;-70
2023/08/05 11:39:00;;;;;;;18.23;10.45;;;22.40;99.90;;;;;;5056401;28;20061;-71
2023/08/05 11:41:26;;;;;;;18.85;10.40;;;22.30;99.90;;;;;;5055042;28;20053;-72
2023/08/05 11:43:53;;;;;;;;;;;22.30;99.90;;;;;;5053137;28;20037;-72
2023/08/05 11:46:25;;;;;;;;;;;22.40;99.90;;;;;;5070286;28;19924;-72
2023/08/05 11:49:11;;;;;;;17.42;10.65;;;22.40;99.90;;;;;;5086136;28;19971;-72
2023/08/05 11:51:50;;;;;;;18.55;11.55;;;22.50;99.90;;;;;;5053716;28;20492;-71
2023/08/05 11:54:32;;;;;;;18.90;10.90;;;22.50;99.90;;;;;;5054343;28;20056;-70
2023/08/05 11:56:58;;;;;;;21.92;13.05;;;22.70;99.90;;;;;;5052643;28;20059;-71
2023/08/05 11:59:44;;;;;;;26.05;14.43;;;22.80;99.90;;;;;;5053597;28;20057;-71
2023/08/05 12:02:11;;;;;;;29.50;15.15;;;22.70;99.90;;;;;;5086472;28;20052;-71
2023/08/05 12:04:41;;;;;;;26.73;13.07;;;22.70;99.90;;;;;;5053219;28;20049;-72
2023/08/05 12:07:11;;;;;;;23.30;13.15;;;22.70;99.90;;;;;;5052140;28;20140;-72
2023/08/05 12:09:37;;;;;;;25.40;13.07;;;22.60;99.90;;;;;;5053525;28;20341;-71
2023/08/05 12:12:03;;;;;;;23.97;14.27;;;22.50;99.90;;;;;;5035987;28;20060;-72
2023/08/05 12:14:29;;;;;;;27.08;14.75;;;22.50;99.90;;;;;;5052367;28;20049;-70
2023/08/05 12:16:59;;;;;;;28.80;15.33;;;22.40;99.90;;;;;;5086055;28;20072;-71
2023/08/05 12:19:29;;;;;;;30.38;16.58;;;22.20;99.90;;;;;;5052142;28;20079;-72
2023/08/05 12:21:54;;;;;;;28.88;15.93;;;22.00;99.90;;;;;;5053342;28;20049;-72
2023/08/05 12:24:20;;;;;;;31.30;17.03;;;21.80;99.90;;;;;;5053413;28;20578;-74
2023/08/05 12:26:46;;;;;;;31.13;17.10;;;21.60;99.90;;;;;;5052198;28;20052;-71
2023/08/05 12:29:11;;;;;;;29.43;17.27;;;21.50;99.90;;;;;;5053145;28;20396;-70
2023/08/05 12:31:37;;;;;;;31.43;17.07;;;21.50;99.90;;;;;;5053261;28;20040;-72
2023/08/05 12:34:03;;;;;;;28.93;17.13;;;21.60;99.90;;;;;;5052984;28;20462;-72
2023/08/05 12:36:29;;;;;;;35.33;17.20;;;21.60;99.90;;;;;;5051667;28;20119;-73
2023/08/05 12:38:55;;;;;;;32.47;16.67;;;21.60;99.90;;;;;;5051950;28;20041;-71